createdAt,value
2023-03-07T00:00:58.100Z,9.30
2023-03-07T00:03:24.907Z,9.43
2023-03-07T00:06:08.664Z,9.57
2023-03-07T00:08:35.882Z,9.63
2023-03-07T00:11:04.907Z,9.80
2023-03-07T00:13:33.208Z,9.07
2023-03-07T00:16:05.300Z,10.75
2023-03-07T00:18:32.513Z,10.75
2023-03-07T00:21:01.094Z,10.20
2023-03-07T00:23:27.862Z,10.20
2023-03-07T00:26:08.217Z,10.30
2023-03-07T00:28:35.520Z,10.80
2023-03-07T00:31:05.419Z,10.27
2023-03-07T00:33:32.221Z,9.75
2023-03-07T00:36:01.005Z,10.23
2023-03-07T00:38:29.959Z,9.82
2023-03-07T00:41:02.210Z,8.85
2023-03-07T00:45:56.586Z,9.60
2023-03-07T00:48:24.332Z,10.40
2023-03-07T00:50:51.952Z,9.00
2023-03-07T00:53:19.677Z,10.30
2023-03-07T00:56:04.327Z,10.90
2023-03-07T00:58:32.878Z,9.20
2023-03-07T01:01:00.217Z,10.68
2023-03-07T01:03:27.517Z,9.68
2023-03-07T01:05:55.109Z,11.05
2023-03-07T01:08:22.789Z,9.82
2023-03-07T01:10:49.986Z,9.68
2023-03-07T01:13:18.862Z,10.60
2023-03-07T01:15:45.928Z,8.57
2023-03-07T01:18:12.851Z,10.30
2023-03-07T01:20:40.763Z,10.70
2023-03-07T01:23:07.947Z,9.27
2023-03-07T01:25:43.870Z,9.93
2023-03-07T01:28:13.991Z,9.77
2023-03-07T01:30:41.361Z,9.32
2023-03-07T01:33:09.535Z,9.15
2023-03-07T01:35:40.138Z,9.27
2023-03-07T01:38:07.232Z,9.73
2023-03-07T01:40:34.007Z,8.55
2023-03-07T01:43:24.149Z,9.68
2023-03-07T01:45:50.929Z,9.55
2023-03-07T01:48:17.980Z,8.45
2023-03-07T01:50:44.936Z,8.55
2023-03-07T01:53:11.979Z,7.72
2023-03-07T01:55:39.235Z,9.38
2023-03-07T01:58:13.044Z,8.50
2023-03-07T02:00:41.359Z,9.52
2023-03-07T02:03:10.942Z,8.48
2023-03-07T02:05:55.416Z,8.63
2023-03-07T02:08:25.148Z,7.65
2023-03-07T02:10:52.506Z,8.65
2023-03-07T02:13:19.296Z,8.48
2023-03-07T02:15:46.782Z,8.73
2023-03-07T02:18:17.777Z,8.65
2023-03-07T02:21:00.520Z,8.52
2023-03-07T02:23:30.020Z,8.43
2023-03-07T02:26:03.493Z,8.05
2023-03-07T02:28:30.517Z,7.55
2023-03-07T02:31:03.899Z,8.55
2023-03-07T02:33:30.776Z,7.70
2023-03-07T02:36:02.947Z,8.45
2023-03-07T02:40:57.454Z,7.95
2023-03-07T02:43:25.165Z,8.45
2023-03-07T02:45:52.033Z,7.95
2023-03-07T02:48:18.894Z,7.85
2023-03-07T02:50:45.659Z,9.38
2023-03-07T02:53:12.384Z,8.23
2023-03-07T02:55:39.192Z,7.95
2023-03-07T02:58:05.980Z,8.10
2023-03-07T03:00:32.872Z,8.55
2023-03-07T03:02:59.810Z,10.50
2023-03-07T03:05:26.773Z,8.27
2023-03-07T03:07:53.509Z,8.23
2023-03-07T03:10:20.545Z,8.45
2023-03-07T03:12:47.384Z,7.85
2023-03-07T03:15:14.250Z,8.23
2023-03-07T03:17:42.762Z,8.52
2023-03-07T03:20:11.933Z,7.93
2023-03-07T03:22:40.204Z,8.63
2023-03-07T03:25:10.348Z,7.40
2023-03-07T03:27:38.239Z,8.48
2023-03-07T03:30:07.033Z,7.97
2023-03-07T03:32:34.152Z,8.23
2023-03-07T03:35:00.927Z,8.32
2023-03-07T03:37:27.722Z,8.18
2023-03-07T03:39:54.624Z,7.32
2023-03-07T03:42:21.394Z,8.10
2023-03-07T03:44:48.150Z,7.03
2023-03-07T03:47:14.999Z,8.32
2023-03-07T03:49:41.881Z,8.35
2023-03-07T03:52:15.228Z,7.45
2023-03-07T03:54:42.009Z,7.75
2023-03-07T03:57:08.799Z,8.48
2023-03-07T03:59:35.560Z,8.40
2023-03-07T04:02:02.383Z,8.25
2023-03-07T04:04:29.233Z,8.05
2023-03-07T04:06:56.012Z,8.65
2023-03-07T04:09:22.785Z,8.48
2023-03-07T04:11:49.523Z,7.88
2023-03-07T04:14:16.280Z,8.55
2023-03-07T04:16:43.226Z,8.15
2023-03-07T04:19:13.030Z,9.13
2023-03-07T04:21:40.875Z,9.35
2023-03-07T04:24:08.328Z,7.97
2023-03-07T04:26:36.476Z,8.18
2023-03-07T04:29:04.358Z,8.10
2023-03-07T04:31:31.551Z,7.80
2023-03-07T04:33:58.758Z,8.60
2023-03-07T04:36:26.051Z,7.93
2023-03-07T04:38:53.131Z,8.57
2023-03-07T04:41:23.117Z,10.13
2023-03-07T04:46:20.979Z,7.43
2023-03-07T04:48:48.091Z,8.45
2023-03-07T04:51:15.416Z,7.80
2023-03-07T04:53:42.265Z,7.72
2023-03-07T04:56:09.813Z,8.43
2023-03-07T04:58:37.641Z,7.95
2023-03-07T05:01:05.053Z,7.78
2023-03-07T05:03:32.453Z,8.88
2023-03-07T05:06:07.860Z,8.52
2023-03-07T05:08:35.204Z,8.90
2023-03-07T05:11:02.304Z,7.75
2023-03-07T05:13:29.102Z,7.38
2023-03-07T05:15:57.603Z,8.18
2023-03-07T05:18:25.745Z,7.97
2023-03-07T05:20:52.604Z,8.75
2023-03-07T05:23:19.953Z,6.75
2023-03-07T05:25:47.141Z,7.50
2023-03-07T05:28:14.657Z,8.20
2023-03-07T05:30:41.474Z,8.15
2023-03-07T05:33:08.268Z,6.53
2023-03-07T05:35:35.096Z,7.22
2023-03-07T05:38:01.876Z,7.45
2023-03-07T05:40:28.673Z,7.72
2023-03-07T05:42:55.429Z,8.13
2023-03-07T05:45:22.356Z,7.85
2023-03-07T05:47:49.078Z,7.28
2023-03-07T05:50:15.885Z,7.90
2023-03-07T05:52:42.718Z,7.20
2023-03-07T05:55:17.288Z,6.82
2023-03-07T05:57:44.037Z,7.10
2023-03-07T06:00:11.606Z,6.40
2023-03-07T06:02:38.409Z,7.93
2023-03-07T06:05:05.532Z,6.55
2023-03-07T06:07:32.315Z,7.40
2023-03-07T06:09:59.200Z,6.57
2023-03-07T06:12:25.970Z,7.32
2023-03-07T06:14:52.786Z,6.95
2023-03-07T06:17:19.526Z,7.45
2023-03-07T06:19:46.343Z,7.13
2023-03-07T06:22:13.062Z,6.40
2023-03-07T06:24:39.915Z,6.22
2023-03-07T06:27:06.673Z,7.30
2023-03-07T06:29:33.643Z,7.63
2023-03-07T06:32:00.559Z,7.05
2023-03-07T06:34:27.580Z,6.90
2023-03-07T06:36:54.372Z,6.40
2023-03-07T06:39:21.338Z,6.53
2023-03-07T06:41:49.668Z,7.55
2023-03-07T06:44:17.737Z,7.32
2023-03-07T06:46:45.806Z,6.93
2023-03-07T06:49:12.893Z,6.65
2023-03-07T06:51:39.693Z,6.35
2023-03-07T06:54:06.509Z,6.13
2023-03-07T06:56:34.437Z,6.07
2023-03-07T06:59:01.457Z,6.15
2023-03-07T07:01:28.361Z,5.88
2023-03-07T07:03:55.216Z,6.43
2023-03-07T07:06:21.989Z,5.38
2023-03-07T07:08:48.699Z,6.38
2023-03-07T07:11:15.553Z,5.82
2023-03-07T07:13:42.260Z,6.10
2023-03-07T07:16:09.693Z,6.93
2023-03-07T07:18:36.542Z,6.60
2023-03-07T07:21:05.218Z,5.47
2023-03-07T07:23:32.020Z,7.03
2023-03-07T07:25:58.893Z,5.93
2023-03-07T07:28:25.669Z,6.22
2023-03-07T07:30:52.429Z,6.35
2023-03-07T07:33:19.580Z,6.50
2023-03-07T07:35:47.159Z,6.28
2023-03-07T07:38:14.615Z,5.28
2023-03-07T07:40:41.419Z,6.15
2023-03-07T07:43:12.088Z,6.85
2023-03-07T07:45:38.892Z,5.18
2023-03-07T07:48:05.901Z,6.10
2023-03-07T07:50:32.716Z,6.35
2023-03-07T07:52:59.499Z,7.00
2023-03-07T07:55:26.357Z,5.70
2023-03-07T07:57:53.194Z,6.60
2023-03-07T08:00:23.348Z,6.00
2023-03-07T08:02:50.907Z,6.97
2023-03-07T08:05:19.812Z,6.95
2023-03-07T08:07:46.981Z,6.35
2023-03-07T08:10:17.437Z,6.18
2023-03-07T08:12:45.146Z,6.57
2023-03-07T08:15:12.909Z,6.63
2023-03-07T08:17:39.768Z,6.57
2023-03-07T08:20:10.122Z,6.38
2023-03-07T08:22:37.543Z,6.20
2023-03-07T08:25:06.109Z,7.40
2023-03-07T08:27:33.561Z,6.72
2023-03-07T08:30:01.455Z,6.95
2023-03-07T08:32:28.650Z,6.15
2023-03-07T08:34:55.576Z,6.05
2023-03-07T08:37:22.370Z,6.03
2023-03-07T08:39:49.244Z,6.20
2023-03-07T08:42:16.037Z,5.90
2023-03-07T08:44:42.864Z,7.25
2023-03-07T08:47:11.423Z,5.75
2023-03-07T08:49:38.345Z,6.22
2023-03-07T08:52:05.527Z,5.80
2023-03-07T08:54:32.636Z,4.63
2023-03-07T08:57:00.644Z,5.45
2023-03-07T08:59:27.579Z,5.45
2023-03-07T09:01:56.324Z,5.80
2023-03-07T09:04:23.637Z,6.68
2023-03-07T09:06:50.423Z,6.40
2023-03-07T09:09:17.452Z,5.57
2023-03-07T09:11:44.441Z,5.82
2023-03-07T09:14:11.227Z,7.00
2023-03-07T09:16:38.072Z,6.40
2023-03-07T09:19:05.782Z,6.80
2023-03-07T09:21:32.938Z,6.57
2023-03-07T09:23:59.705Z,7.03
2023-03-07T09:26:26.493Z,6.38
2023-03-07T09:28:53.249Z,8.13
2023-03-07T09:31:20.116Z,5.97
2023-03-07T09:33:47.285Z,6.22
2023-03-07T09:36:14.840Z,6.30
2023-03-07T09:38:41.800Z,6.78
2023-03-07T09:41:17.828Z,6.13
2023-03-07T09:43:51.596Z,6.38
2023-03-07T09:46:30.476Z,7.00
2023-03-07T09:49:17.239Z,5.97
2023-03-07T09:51:46.900Z,5.70
2023-03-07T09:54:24.423Z,6.03
2023-03-07T09:57:01.672Z,6.72
2023-03-07T09:59:41.896Z,6.00
2023-03-07T10:02:31.324Z,6.38
2023-03-07T10:05:49.729Z,6.55
2023-03-07T10:08:25.012Z,6.85
2023-03-07T10:11:03.851Z,8.55
2023-03-07T10:13:52.199Z,6.63
2023-03-07T10:16:54.388Z,7.85
2023-03-07T10:19:33.220Z,6.82
2023-03-07T10:22:20.146Z,7.05
2023-03-07T10:25:14.137Z,7.40
2023-03-07T10:27:40.927Z,6.43
2023-03-07T10:30:18.044Z,7.38
2023-03-07T10:33:01.443Z,6.93
2023-03-07T10:35:41.954Z,8.07
2023-03-07T10:38:27.259Z,6.97
2023-03-07T10:40:59.072Z,7.18
2023-03-07T10:43:30.178Z,8.20
2023-03-07T10:46:24.783Z,6.75
2023-03-07T10:49:13.441Z,6.57
2023-03-07T10:51:58.683Z,6.80
2023-03-07T10:54:33.005Z,8.13
2023-03-07T10:57:09.093Z,7.82
2023-03-07T10:59:37.720Z,7.00
2023-03-07T11:02:31.553Z,7.13
2023-03-07T11:04:58.925Z,7.25
2023-03-07T11:07:34.451Z,7.32
2023-03-07T11:10:22.099Z,8.13
2023-03-07T11:12:49.225Z,6.47
2023-03-07T11:15:23.561Z,7.22
2023-03-07T11:17:52.019Z,7.38
2023-03-07T11:20:20.640Z,6.40
2023-03-07T11:22:47.539Z,7.35
2023-03-07T11:25:25.325Z,7.05
2023-03-07T11:27:57.245Z,7.38
2023-03-07T11:30:29.955Z,6.72
2023-03-07T11:33:26.337Z,6.80
2023-03-07T11:36:17.086Z,7.80
2023-03-07T11:38:55.829Z,5.68
2023-03-07T11:41:32.810Z,5.88
2023-03-07T11:44:20.931Z,7.18
2023-03-07T11:47:18.399Z,7.53
2023-03-07T11:49:59.086Z,7.20
2023-03-07T11:52:47.700Z,7.75
2023-03-07T11:55:36.741Z,6.05
2023-03-07T11:58:23.900Z,6.45
2023-03-07T12:00:59.713Z,5.90
2023-03-07T12:03:50.864Z,7.15
2023-03-07T12:06:37.219Z,7.85
2023-03-07T12:09:20.120Z,6.13
2023-03-07T12:12:02.047Z,6.88
2023-03-07T12:14:42.372Z,6.95
2023-03-07T12:17:30.314Z,6.10
2023-03-07T12:20:31.904Z,5.88
2023-03-07T12:23:12.644Z,6.72
2023-03-07T12:25:43.741Z,7.38
2023-03-07T12:28:22.395Z,6.13
2023-03-07T12:31:02.471Z,7.03
2023-03-07T12:33:32.013Z,7.70
2023-03-07T12:36:04.086Z,6.60
2023-03-07T12:41:28.765Z,7.32
2023-03-07T12:44:03.238Z,6.10
2023-03-07T12:46:40.502Z,6.78
2023-03-07T12:49:26.275Z,7.38
2023-03-07T12:52:00.693Z,7.22
2023-03-07T12:54:42.246Z,6.75
2023-03-07T12:57:17.390Z,7.20
2023-03-07T12:59:45.074Z,7.18
2023-03-07T13:02:13.834Z,6.93
2023-03-07T13:04:44.638Z,6.22
2023-03-07T13:07:28.335Z,7.25
2023-03-07T13:09:57.873Z,7.03
2023-03-07T13:12:35.847Z,6.47
2023-03-07T13:15:23.319Z,7.47
2023-03-07T13:17:50.036Z,6.82
2023-03-07T13:20:19.779Z,6.82
2023-03-07T13:22:46.508Z,5.63
2023-03-07T13:25:27.325Z,6.97
2023-03-07T13:27:57.986Z,6.43
2023-03-07T13:30:30.083Z,7.07
2023-03-07T13:35:30.772Z,7.65
2023-03-07T13:38:19.960Z,7.22
2023-03-07T13:40:46.772Z,6.47
2023-03-07T13:43:19.857Z,5.53
2023-03-07T13:46:07.795Z,7.07
2023-03-07T13:48:40.515Z,7.18
2023-03-07T13:51:09.393Z,6.32
2023-03-07T13:53:50.629Z,7.40
2023-03-07T13:56:17.747Z,7.07
2023-03-07T13:58:50.063Z,7.43
2023-03-07T14:01:24.254Z,6.95
2023-03-07T14:04:06.180Z,6.97
2023-03-07T14:06:39.350Z,7.43
2023-03-07T14:09:08.590Z,8.40
2023-03-07T14:11:47.066Z,6.15
2023-03-07T14:14:30.655Z,7.35
2023-03-07T14:17:22.758Z,7.68
2023-03-07T14:20:11.805Z,6.72
2023-03-07T14:22:52.160Z,6.45
2023-03-07T14:25:35.187Z,7.05
2023-03-07T14:28:17.828Z,6.55
2023-03-07T14:31:06.745Z,6.63
2023-03-07T14:33:35.942Z,7.07
2023-03-07T14:36:05.575Z,7.00
2023-03-07T14:38:33.013Z,7.38
2023-03-07T14:41:14.002Z,6.85
2023-03-07T14:43:40.821Z,7.20
2023-03-07T14:46:27.295Z,6.80
2023-03-07T14:49:00.486Z,7.00
2023-03-07T14:51:29.609Z,6.60
2023-03-07T14:53:57.472Z,6.35
2023-03-07T14:56:28.368Z,6.88
2023-03-07T14:59:01.467Z,6.88
2023-03-07T15:01:40.285Z,6.90
2023-03-07T15:04:24.577Z,7.18
2023-03-07T15:06:57.158Z,6.25
2023-03-07T15:09:25.918Z,7.05
2023-03-07T15:12:06.614Z,6.43
2023-03-07T15:14:45.206Z,6.47
2023-03-07T15:17:26.600Z,6.68
2023-03-07T15:19:56.097Z,5.47
2023-03-07T15:22:33.905Z,7.72
2023-03-07T15:25:00.774Z,6.50
2023-03-07T15:27:31.910Z,7.40
2023-03-07T15:30:00.925Z,5.53
2023-03-07T15:32:33.892Z,6.55
2023-03-07T15:35:16.830Z,6.35
2023-03-07T15:37:57.196Z,6.55
2023-03-07T15:40:35.057Z,6.50
2023-03-07T15:43:04.897Z,6.97
2023-03-07T15:45:42.652Z,7.05
2023-03-07T15:48:31.831Z,7.10
2023-03-07T15:51:01.881Z,6.65
2023-03-07T15:53:34.627Z,6.50
2023-03-07T15:56:07.037Z,6.70
2023-03-07T15:58:36.550Z,6.70
2023-03-07T16:01:22.898Z,6.75
2023-03-07T16:03:54.514Z,7.00
2023-03-07T16:06:33.324Z,7.50
2023-03-07T16:09:00.075Z,6.20
2023-03-07T16:11:26.887Z,7.43
2023-03-07T16:13:53.791Z,6.50
2023-03-07T16:16:24.046Z,7.35
2023-03-07T16:18:51.842Z,7.95
2023-03-07T16:21:19.866Z,7.47
2023-03-07T16:23:47.479Z,6.78
2023-03-07T16:26:17.313Z,7.13
2023-03-07T16:28:44.411Z,6.75
2023-03-07T16:31:13.991Z,6.65
2023-03-07T16:33:40.768Z,5.88
2023-03-07T16:36:10.018Z,6.03
2023-03-07T16:38:36.744Z,6.60
2023-03-07T16:41:06.147Z,8.45
2023-03-07T16:43:38.420Z,7.07
2023-03-07T16:48:40.086Z,7.60
2023-03-07T16:51:09.993Z,7.60
2023-03-07T16:53:36.737Z,7.30
2023-03-07T16:56:03.644Z,7.47
2023-03-07T16:58:33.609Z,6.68
2023-03-07T17:01:00.639Z,7.07
2023-03-07T17:03:29.699Z,6.65
2023-03-07T17:05:56.475Z,6.95
2023-03-07T17:08:23.215Z,6.53
2023-03-07T17:10:50.002Z,6.93
2023-03-07T17:13:18.265Z,6.43
2023-03-07T17:15:46.141Z,5.55
2023-03-07T17:18:13.505Z,7.35
2023-03-07T17:20:41.252Z,8.65
2023-03-07T17:23:08.500Z,8.63
2023-03-07T17:25:35.400Z,9.52
2023-03-07T17:28:08.449Z,9.65
2023-03-07T17:30:35.263Z,8.15
2023-03-07T17:33:02.112Z,8.65
2023-03-07T17:35:30.619Z,8.00
2023-03-07T17:37:57.637Z,7.65
2023-03-07T17:40:24.461Z,9.52
2023-03-07T17:42:54.696Z,12.88
2023-03-07T17:45:22.146Z,10.07
2023-03-07T17:47:54.030Z,9.70
2023-03-07T17:50:25.371Z,8.73
2023-03-07T17:52:53.538Z,6.37
2023-03-07T17:55:21.271Z,6.45
2023-03-07T17:57:48.032Z,6.43
2023-03-07T18:00:15.860Z,6.10
2023-03-07T18:02:45.750Z,6.30
2023-03-07T18:05:13.199Z,6.82
2023-03-07T18:07:41.379Z,8.27
2023-03-07T18:10:09.628Z,10.20
2023-03-07T18:12:39.232Z,9.85
2023-03-07T18:15:11.231Z,9.95
2023-03-07T18:17:47.270Z,11.70
2023-03-07T18:20:15.457Z,11.65
2023-03-07T18:22:42.969Z,12.63
2023-03-07T18:25:12.718Z,13.85
2023-03-07T18:27:39.543Z,13.40
2023-03-07T18:30:06.890Z,14.38
2023-03-07T18:32:34.320Z,15.55
2023-03-07T18:35:01.215Z,14.95
2023-03-07T18:37:28.914Z,12.30
2023-03-07T18:39:55.852Z,14.40
2023-03-07T18:42:22.819Z,14.13
2023-03-07T18:44:49.609Z,14.20
2023-03-07T18:47:16.424Z,12.82
2023-03-07T18:49:43.286Z,11.30
2023-03-07T18:52:10.106Z,10.45
2023-03-07T18:54:36.919Z,20.80
2023-03-07T18:57:03.739Z,14.80
2023-03-07T18:59:30.500Z,12.70
2023-03-07T19:02:02.944Z,11.70
2023-03-07T19:04:31.428Z,10.60
2023-03-07T19:07:00.616Z,10.60
2023-03-07T19:09:27.802Z,9.23
2023-03-07T19:11:54.798Z,9.23
2023-03-07T19:14:21.606Z,15.38
2023-03-07T19:16:48.450Z,17.80
2023-03-07T19:19:15.201Z,20.15
2023-03-07T19:21:42.059Z,28.52
2023-03-07T19:24:11.369Z,29.00
2023-03-07T19:26:38.259Z,21.20
2023-03-07T19:29:05.099Z,31.45
2023-03-07T19:31:33.022Z,14.88
2023-03-07T19:34:02.837Z,12.80
2023-03-07T19:36:32.142Z,10.95
2023-03-07T19:39:02.193Z,12.60
2023-03-07T19:41:31.427Z,12.05
2023-03-07T19:43:59.750Z,11.80
2023-03-07T19:46:27.014Z,11.27
2023-03-07T19:48:53.944Z,10.05
2023-03-07T19:51:31.907Z,11.98
2023-03-07T19:53:58.947Z,14.10
2023-03-07T19:56:27.828Z,13.63
2023-03-07T19:58:55.010Z,13.25
2023-03-07T20:01:23.207Z,15.80
2023-03-07T20:03:51.018Z,13.90
2023-03-07T20:06:20.711Z,18.67
2023-03-07T20:08:48.446Z,20.20
2023-03-07T20:11:26.882Z,12.30
2023-03-07T20:13:56.135Z,19.42
2023-03-07T20:16:23.678Z,16.77
2023-03-07T20:18:51.855Z,25.45
2023-03-07T20:21:20.033Z,19.50
2023-03-07T20:23:48.366Z,18.17
2023-03-07T20:26:18.806Z,14.35
2023-03-07T20:28:45.912Z,18.02
2023-03-07T20:31:13.281Z,16.23
2023-03-07T20:33:46.000Z,16.33
2023-03-07T20:36:18.401Z,16.85
2023-03-07T20:38:50.079Z,14.27
2023-03-07T20:41:20.506Z,12.63
2023-03-07T20:43:48.164Z,11.35
2023-03-07T20:46:17.047Z,8.07
2023-03-07T20:48:44.949Z,9.77
2023-03-07T20:51:21.040Z,8.65
2023-03-07T20:54:10.545Z,8.70
2023-03-07T20:56:39.297Z,6.85
2023-03-07T20:59:07.518Z,6.68
2023-03-07T21:01:35.258Z,6.38
2023-03-07T21:04:06.432Z,7.40
2023-03-07T21:06:35.099Z,6.97
2023-03-07T21:09:03.420Z,6.82
2023-03-07T21:11:31.509Z,6.20
2023-03-07T21:13:58.640Z,7.20
2023-03-07T21:16:27.367Z,7.43
2023-03-07T21:19:02.759Z,8.05
2023-03-07T21:21:31.132Z,7.90
2023-03-07T21:23:58.354Z,7.32
2023-03-07T21:26:33.748Z,6.82
2023-03-07T21:29:00.729Z,6.55
2023-03-07T21:31:29.925Z,7.50
2023-03-07T21:33:59.005Z,8.05
2023-03-07T21:36:27.586Z,7.28
2023-03-07T21:38:55.155Z,8.55
2023-03-07T21:41:24.978Z,8.07
2023-03-07T21:43:53.123Z,7.75
2023-03-07T21:46:20.343Z,6.68
2023-03-07T21:48:47.213Z,7.78
2023-03-07T21:51:14.083Z,8.02
2023-03-07T21:53:41.276Z,7.88
2023-03-07T21:56:10.296Z,8.57
2023-03-07T21:58:38.204Z,8.45
2023-03-07T22:01:13.394Z,9.02
2023-03-07T22:03:40.521Z,7.50
2023-03-07T22:06:08.864Z,7.78
2023-03-07T22:08:36.747Z,7.18
2023-03-07T22:11:05.117Z,7.00
2023-03-07T22:13:34.480Z,6.95
2023-03-07T22:16:04.732Z,6.47
2023-03-07T22:18:33.093Z,6.25
2023-03-07T22:21:05.251Z,6.72
2023-03-07T22:26:07.262Z,6.00
2023-03-07T22:28:34.045Z,6.13
2023-03-07T22:31:05.786Z,6.18
2023-03-07T22:33:33.060Z,7.70
2023-03-07T22:36:02.413Z,7.50
2023-03-07T22:38:29.605Z,6.70
2023-03-07T22:41:22.886Z,6.97
2023-03-07T22:43:49.708Z,7.82
2023-03-07T22:46:16.501Z,6.95
2023-03-07T22:48:43.273Z,6.75
2023-03-07T22:51:17.941Z,7.07
2023-03-07T22:53:44.930Z,6.75
2023-03-07T22:56:19.083Z,7.28
2023-03-07T22:58:46.160Z,6.40
2023-03-07T23:01:15.129Z,6.75
2023-03-07T23:03:42.065Z,6.68
2023-03-07T23:06:09.439Z,7.38
2023-03-07T23:08:36.154Z,6.78
2023-03-07T23:11:05.114Z,6.75
2023-03-07T23:13:32.463Z,6.88
2023-03-07T23:15:59.509Z,7.20
2023-03-07T23:18:26.340Z,7.65
2023-03-07T23:20:53.127Z,6.70
2023-03-07T23:23:19.961Z,7.43
2023-03-07T23:25:46.731Z,7.32
2023-03-07T23:28:13.554Z,7.45
2023-03-07T23:30:40.875Z,6.80
2023-03-07T23:33:07.673Z,6.45
2023-03-07T23:35:35.343Z,6.85
2023-03-07T23:38:02.926Z,6.80
2023-03-07T23:40:29.723Z,7.25
2023-03-07T23:42:58.028Z,7.43
2023-03-07T23:45:25.721Z,7.38
2023-03-07T23:47:52.714Z,7.10
2023-03-07T23:50:20.830Z,8.38
2023-03-07T23:52:47.650Z,7.75
2023-03-07T23:55:14.849Z,7.35
2023-03-07T23:57:41.712Z,6.50
